Nearby METAR Reports

 

KSJC - San Jose, California, USA
Distance from station: NE 14km
Actualización: 23/09/2021 10:53
Despejado
Despejado
 Viento del O
Viento: O 6 km/h
Temperatura: 16°C
Rocío: 13°C
Humedad: 83%
Barómetro: 1015.2 hPa
Clouds: Despejado
Visibility: 16 km
2021/09/23 08:53 KSJC 230853Z AUTO 26003KT 10SM CLR 16/13 A2998 RMK AO2 SLP153 T01560128 56003
KNUQ - Moffett Nas/Mtn, California, USA
Distance from station: N 14km
Actualización: 22/08/2021 13:40
NOT Current
Cubierto
Cubierto
 Viento del SSE
Viento: SSE 11 km/h
Temperatura: 16°C
Rocío: 12°C
Humedad: 77%
Barómetro: 1009.8 hPa
Clouds: Cubierto
Visibility: 16 km
Cloud details: Cubierto 549 m
2021/08/22 11:40 KNUQ 221140Z AUTO 16006KT 10SM OVC018 16/12 A2982 RMK AO2
 
KPAO - Palo Alto, California, USA
Distance from station: NNO 23km
Actualización: 23/09/2021 05:47
NOT Current
Despejado
Despejado
 Viento del ONO
Viento: ONO 11 km/h
Temperatura: 17°C
Rocío: 12°C
Humedad: 73%
Barómetro: 1016.9 hPa
Clouds: Despejado
Visibility: 16 km
2021/09/23 03:47 KPAO 230347Z 30006KT 10SM SKC 17/12 A3003 RMK LAST
KRHV - San Jose/Reid, California, USA
Distance from station: ENE 19km
Actualización: 23/09/2021 06:57
NOT Current
Few Clouds
Few Clouds
 Viento del O
Viento: O 11 km/h
Temperatura: 19°C
Rocío: 12°C
Humedad: 64%
Barómetro: 1016.6 hPa
Clouds: Few Clouds
Visibility: 16 km
Cloud details: Few Clouds 2438 m
2021/09/23 04:57 KRHV 230457Z 27006KT 10SM FEW080 19/12 A3002 RMK LAST
 
KOAK - Oakland, California, USA
Distance from station: NNO 50km
Actualización: 23/09/2021 11:15
Muy nuboso
Muy nuboso
 Viento del NO
Viento: NO 11 km/h
Temperatura: 14°C
Rocío: 12°C
Humedad: 88%
Barómetro: 1015.9 hPa
Clouds: Muy nuboso
Visibility: 16 km
Cloud details: Muy nuboso 183 m
2021/09/23 09:15 KOAK 230915Z 31006KT 10SM BKN006 14/12 A3000 RMK AO2 T01390122
KSQL - San Carlos Airpo, California, USA
Distance from station: NO 34km
Actualización: 23/09/2021 11:35
Despejado
Despejado
 Viento del calm
Viento: Calma
Temperatura: 14°C
Rocío: 11°C
Humedad: 82%
Barómetro: 1015.6 hPa
Clouds: Despejado
Visibility: 16 km
2021/09/23 09:35 KSQL 230935Z AUTO 00000KT 10SM CLR 14/11 A2999 RMK AO2
 
KSFO - San Francisco, California, USA
Distance from station: NO 49km
Actualización: 23/09/2021 10:56
Few Clouds
Few Clouds
 Viento del ONO
Viento: ONO 15 km/h
Temperatura: 13°C
Rocío: 11°C
Humedad: 88%
Barómetro: 1015.6 hPa
Clouds: Few Clouds
Visibility: 16 km
Cloud details: Few Clouds 152 m
2021/09/23 08:56 KSFO 230856Z 30008KT 10SM FEW005 13/11 A2999 RMK AO2 SLP154 T01280111 55005
KE16 - San Martin, California, USA
Distance from station: ESE 43km
Actualización: 23/09/2021 11:35
Few Clouds
Few Clouds
 Viento del calm
Viento: Calma
Temperatura: 13°C
Rocío: 11°C
Humedad: 88%
Barómetro: 1016.3 hPa
Clouds: Few Clouds
Visibility: 16 km
Cloud details: Few Clouds 1524 m
2021/09/23 09:35 KE16 230935Z AUTO 00000KT 10SM FEW050 13/11 A3001 RMK AO2 PWINO PNO
 
KWVI - Watsonville, California, USA
Distance from station: SSE 44km
Actualización: 23/09/2021 10:53
Mist, Cubierto
Mist, Cubierto
 Viento del SO
Viento: SO 6 km/h
Temperatura: 14°C
Rocío: 13°C
Humedad: 94%
Barómetro: 1016.3 hPa
Resumen: Mist
Clouds: Cubierto
Visibility: 10 km
Cloud details: Cubierto 122 m
2021/09/23 08:53 KWVI 230853Z AUTO 22003KT 6SM BR OVC004 14/13 A3001 RMK AO2 SLP161 T01390133 55005
KHAF - Half Moon Bay, California, USA
Distance from station: ONO 50km
Actualización: 23/09/2021 11:35
Cubierto
Cubierto
 Viento del SE
Viento: SE 6 km/h
Temperatura: 12°C
Rocío: 12°C
Humedad: 100%
Barómetro: 1015.6 hPa
Clouds: Cubierto
Visibility: 11 km
Cloud details: Cubierto 122 m
2021/09/23 09:35 KHAF 230935Z AUTO 13003KT 7SM OVC004 12/12 A2999 RMK AO2 PWINO
 
KHWD - Hayward, California, USA
Distance from station: N 44km
Actualización: 23/09/2021 10:54
Despejado
Despejado
 Viento del ONO
Viento: ONO 9 km/h
Temperatura: 13°C
Rocío: 12°C
Humedad: 94%
Barómetro: 1015.2 hPa
Clouds: Despejado
Visibility: 16 km
2021/09/23 08:54 KHWD 230854Z 30005KT 10SM CLR 13/12 A2998 RMK AO2 SLP161 T01330117 58007
KLVK - Livermore, California, USA
Distance from station: NNE 51km
Actualización: 23/09/2021 10:53
Despejado
Despejado
 Viento del calm
Viento: Calma
Temperatura: 17°C
Rocío: 9°C
Humedad: 59%
Barómetro: 1014.9 hPa
Clouds: Despejado
Visibility: 16 km
2021/09/23 08:53 KLVK 230853Z AUTO 00000KT 10SM CLR 17/09 A2997 RMK AO2 SLP142 T01670094 58005